Rifle, CO

3:55 AM MDT on August 27, 2014 (GMT -0600)
Taughenbaugh Mesa | Change Station
CLOSE
Current Station
Personal Weather Station
Location: Rifle, CO
Elevation: 5650 ft
Nearby Weather Stations
Active Advisory: Special Statement

Elev 5650 ft 39.50 °N, 107.85 °W | Updated 7 seconds ago

Overcast
Overcast
54.9 °F
Feels Like 54.9 °F
N
0.0
Wind Variable Wind from South
Gusts 0.0 mph

Today
High -- | Low -- °F
--% Chance of Precip.
Yesterday
High -- | Low -- °F
Precip. -- in
6:34 AM 7:49 PM
Waxing Crescent, 3% visible
Pressure 30.25 in
Visibility 10.0 miles
Clouds Few 300 ft
Mostly Cloudy 2100 ft
Overcast 8000 ft
Dew Point 53 °F
Humidity 94%
Rainfall 0.18 in
Snow Depth Not available.
UV 0 out of 12
Pollen 8.80 out of 12
Air Quality Not available.
Flu Activity Not available.
SPECI KRIL 270939Z AUTO 29003KT 10SM FEW003 BKN021 OVC080 13/12 A3025 RMK AO2 RAE10 P0001 T01280122

More Conditions Fewer Conditions

Pressure 30.25 in
Visibility 10.0 miles
Clouds Few 300 ft
Mostly Cloudy 2100 ft
Overcast 8000 ft
Dew Point 53 °F
Humidity 94%
Rainfall 0.18 in
Snow Depth Not available.
UV 0 out of 12
Pollen 8.80 out of 12
Air Quality Not available.
Flu Activity Not available.
SPECI KRIL 270939Z AUTO 29003KT 10SM FEW003 BKN021 OVC080 13/12 A3025 RMK AO2 RAE10 P0001 T01280122

More Conditions Fewer Conditions

10-Day Weather Forecast

Almanac

Astronomy

Aug. 27, 2014 Rise Set
Actual Time 6:34 AM MDT 7:49 PM MDT
Civil Twilight 6:06 AM MDT 8:17 PM MDT
Nautical Twilight 5:33 AM MDT 8:50 PM MDT
Astronomical Twilight 4:58 AM MDT 9:25 PM MDT
Moon 8:33 AM MDT 8:44 PM MDT
Length of Visible Light 14h 10m
Length of Day
13h 14m
Tomorrow will be 2m 27s shorter.
Waxing Crescent, 3% of the Moon is Illuminated
Today
Waxing Crescent
Sep 2
First Quarter
Sep 8
Full
Sep 15
Last Quarter
Sep 24
New

Today's Extremes

State Highs State Lows

Community

WunderPhotos

Upload Photos

1,747,661 photos uploaded!

Nearby

Snow Depth

Station Depth Elevation
Burro Mountain 0 in 9400 ft
Bison Lake 0 in 10880 ft
Overland Reservoir 0 in 9880 ft
Park Reservoir 0 in 9960 ft
Mesa Lakes 0 in 10000 ft

Earthquake Activity

City Distance Mag. Time & Date
No recent earthquake activity has been reported nearby.
Minimum magnitude displayed is 2.5.

Coastal Water Temperatures

Place Temperature
No Stations Reporting

Nearby Weather Stations